Terminal Aerodrome Forecast
Issued by NWS Pueblo, CO

Home | Current Version | Previous Version | Text Only | Print | Product List | Glossary On
Versions: 1 2 3 4 5 6 7 8 9 10 11 12 13 14 15 16 17 18 19 20 21
000
FTUS45 KPUB 281206 AAB
TAFPUB
TAF AMD
KPUB 281206Z 2812/2912 VRB06KT P6SM FEW006 SCT010
      TEMPO 2812/2815 BKN006
     FM281500 13005KT P6SM SCT010 SCT150
     FM281900 12008KT P6SM FEW060 SCT150
     FM282300 11010KT P6SM VCTS SCT060CB BKN100
     FM290400 03010KT P6SM VCSH SCT015 SCT080 BKN120
     FM290700 VRB06KT P6SM SCT030 BKN150=

USA.gov is the U.S. government's official web portal to all federal, state and local government web resources and services.